createdAt,value
2023-03-05T00:23:09.755Z,58.47
2023-03-05T00:27:23.901Z,58.18
2023-03-05T00:31:54.259Z,58.21
2023-03-05T00:49:00.837Z,58.06
2023-03-05T00:53:29.805Z,57.99
2023-03-05T00:57:59.134Z,57.98
2023-03-05T01:02:27.340Z,57.77
2023-03-05T01:24:06.602Z,57.31
2023-03-05T01:28:36.018Z,57.31
2023-03-05T01:33:07.080Z,57.65
2023-03-05T01:37:37.737Z,57.33
2023-03-05T01:59:07.585Z,57.35
2023-03-05T02:03:36.908Z,57.48
2023-03-05T02:08:06.233Z,56.99
2023-03-05T02:12:35.437Z,57.21
2023-03-05T02:16:50.177Z,57.37
2023-03-05T02:21:25.582Z,57.30
2023-03-05T02:26:00.669Z,57.36
2023-03-05T02:39:36.393Z,58.07
2023-03-05T02:44:05.644Z,57.87
2023-03-05T02:48:34.982Z,57.95
2023-03-05T03:10:07.737Z,58.92
2023-03-05T03:14:37.033Z,59.04
2023-03-05T03:22:57.332Z,59.25
2023-03-05T03:27:27.643Z,59.53
2023-03-05T03:53:26.841Z,60.99
2023-03-05T03:57:56.153Z,60.96
2023-03-05T04:19:35.352Z,61.83
2023-03-05T04:24:04.431Z,62.26
2023-03-05T04:28:15.490Z,62.52
2023-03-05T04:54:28.861Z,63.52
2023-03-05T04:58:39.300Z,63.50
2023-03-05T05:32:50.216Z,64.63
2023-03-05T05:37:02.138Z,64.87
2023-03-05T05:41:27.942Z,64.43
2023-03-05T05:45:31.262Z,64.39
2023-03-05T06:06:58.756Z,64.76
2023-03-05T06:11:18.929Z,64.96
2023-03-05T06:15:41.835Z,64.71
2023-03-05T06:44:32.762Z,64.65
2023-03-05T06:48:37.698Z,64.43
2023-03-05T06:53:05.809Z,64.55
2023-03-05T06:57:35.186Z,64.45
2023-03-05T07:02:04.297Z,64.43
2023-03-05T07:06:33.537Z,64.40
2023-03-05T07:10:40.756Z,64.38
2023-03-05T07:14:51.338Z,64.52
2023-03-05T07:19:14.252Z,64.45
2023-03-05T07:23:10.014Z,64.00
2023-03-05T07:27:28.537Z,64.41
2023-03-05T07:57:30.831Z,63.69
2023-03-05T08:01:40.509Z,63.48
2023-03-05T08:06:02.451Z,63.15
2023-03-05T08:10:22.899Z,62.97
2023-03-05T08:31:21.617Z,62.80
2023-03-05T08:35:40.373Z,62.80
2023-03-05T08:39:52.730Z,62.54
2023-03-05T09:13:54.474Z,61.89
2023-03-05T09:18:23.063Z,61.67
2023-03-05T09:22:39.738Z,61.72
2023-03-05T09:27:08.876Z,61.64
2023-03-05T09:31:27.419Z,61.15
2023-03-05T09:35:47.266Z,60.83
2023-03-05T09:40:04.838Z,60.79
2023-03-05T09:44:35.979Z,61.04
2023-03-05T09:53:29.101Z,59.97
2023-03-05T09:57:55.362Z,59.99
2023-03-05T10:15:26.459Z,59.73
2023-03-05T10:19:45.756Z,59.66
2023-03-05T10:24:33.206Z,59.54
2023-03-05T10:29:10.519Z,59.14
2023-03-05T10:33:44.378Z,58.29
2023-03-05T10:38:12.592Z,58.45
2023-03-05T10:42:48.171Z,58.45
2023-03-05T10:47:17.504Z,58.30
2023-03-05T10:51:50.845Z,58.14
2023-03-05T10:56:07.420Z,58.09
2023-03-05T11:00:37.710Z,57.37
2023-03-05T11:04:56.093Z,57.57
2023-03-05T11:09:29.340Z,57.59
2023-03-05T11:13:38.571Z,57.18
2023-03-05T11:18:07.245Z,57.20
2023-03-05T11:35:17.035Z,55.84
2023-03-05T11:39:49.343Z,55.83
2023-03-05T11:44:12.451Z,55.87
2023-03-05T12:11:20.490Z,54.37
2023-03-05T12:38:27.129Z,55.52
2023-03-05T12:43:09.132Z,55.75
2023-03-05T12:47:50.595Z,56.04
2023-03-05T12:52:27.237Z,56.39
2023-03-05T12:57:02.092Z,56.37
2023-03-05T13:01:34.919Z,56.65
2023-03-05T14:02:19.638Z,57.86
2023-03-05T14:06:32.402Z,57.98
2023-03-05T14:11:14.533Z,57.91
2023-03-05T14:15:33.636Z,58.03
2023-03-05T14:20:15.529Z,57.79
2023-03-05T14:24:39.024Z,57.40
2023-03-05T14:29:07.483Z,57.26
2023-03-05T15:09:42.376Z,56.82
2023-03-05T15:13:56.863Z,56.94
2023-03-05T15:18:28.441Z,57.28
2023-03-05T15:22:50.526Z,57.51
2023-03-05T15:27:13.014Z,57.10
2023-03-05T15:31:41.264Z,57.36
2023-03-05T15:36:09.078Z,57.50
2023-03-05T15:40:28.085Z,57.45
2023-03-05T16:02:16.529Z,57.83
2023-03-05T16:06:33.395Z,57.81
2023-03-05T16:11:02.367Z,57.95
2023-03-05T16:15:31.843Z,57.68
2023-03-05T16:19:46.206Z,57.64
2023-03-05T16:24:08.063Z,57.62
2023-03-05T16:28:44.010Z,57.49
2023-03-05T16:51:32.818Z,57.42
2023-03-05T16:56:04.032Z,57.73
2023-03-05T17:00:34.903Z,57.88
2023-03-05T17:05:05.803Z,57.76
2023-03-05T17:30:41.844Z,57.59
2023-03-05T17:35:11.602Z,57.58
2023-03-05T17:39:30.066Z,57.50
2023-03-05T17:44:00.822Z,57.86
2023-03-05T17:48:12.208Z,57.68
2023-03-05T18:09:54.791Z,58.09
2023-03-05T18:14:24.009Z,57.86
2023-03-05T18:18:37.262Z,57.87
2023-03-05T18:27:16.364Z,57.94
2023-03-05T18:48:56.638Z,58.11
2023-03-05T18:53:26.188Z,58.36
2023-03-05T18:57:49.626Z,58.50
2023-03-05T19:15:24.056Z,58.61
2023-03-05T19:19:53.957Z,58.72
2023-03-05T19:24:26.280Z,58.98
2023-03-05T19:28:57.094Z,59.02
2023-03-05T19:50:17.127Z,59.59
2023-03-05T19:54:50.179Z,59.72
2023-03-05T20:17:48.133Z,60.20
2023-03-05T20:22:18.722Z,60.21
2023-03-05T20:26:50.728Z,60.44
2023-03-05T20:48:58.675Z,60.74
2023-03-05T20:53:29.785Z,60.71
2023-03-05T20:57:59.474Z,60.78
2023-03-05T21:14:43.886Z,60.96
2023-03-05T21:19:13.273Z,60.98
2023-03-05T21:23:22.917Z,61.09
2023-03-05T21:27:52.157Z,61.21
2023-03-05T21:32:21.439Z,61.29
2023-03-05T21:58:25.409Z,61.31
2023-03-05T22:02:49.428Z,61.18
2023-03-05T22:30:53.289Z,61.26
2023-03-05T22:35:22.515Z,61.30
2023-03-05T22:39:51.801Z,61.34
2023-03-05T22:44:24.892Z,61.40
2023-03-05T23:10:03.900Z,61.55
2023-03-05T23:14:33.157Z,61.68
2023-03-05T23:36:23.267Z,62.18
2023-03-05T23:40:52.680Z,62.27
2023-03-05T23:45:21.944Z,62.44
